createdAt,value
2023-04-01T00:00:13.259Z,0.00
2023-04-01T00:01:13.278Z,0.00
2023-04-01T00:02:13.341Z,0.00
2023-04-01T00:03:13.362Z,0.00
2023-04-01T00:04:13.368Z,0.00
2023-04-01T00:05:13.335Z,0.00
2023-04-01T00:06:13.341Z,0.00
2023-04-01T00:07:13.359Z,0.00
2023-04-01T00:08:13.370Z,0.00
2023-04-01T00:09:13.401Z,0.00
2023-04-01T00:10:13.402Z,0.00
2023-04-01T00:11:13.415Z,0.00
2023-04-01T00:12:13.426Z,0.00
2023-04-01T00:13:13.441Z,0.00
2023-04-01T00:14:13.457Z,0.00
2023-04-01T00:15:13.467Z,0.00
2023-04-01T00:16:20.398Z,0.00
2023-04-01T00:17:13.495Z,0.00
2023-04-01T00:18:13.508Z,0.00
2023-04-01T00:19:13.522Z,0.00
2023-04-01T00:20:13.539Z,0.00
2023-04-01T00:21:13.553Z,0.00
2023-04-01T00:22:13.563Z,0.00
2023-04-01T00:23:13.578Z,0.00
2023-04-01T00:24:13.593Z,0.00
2023-04-01T00:25:13.604Z,0.00
2023-04-01T00:26:13.730Z,0.00
2023-04-01T00:27:13.638Z,0.00
2023-04-01T00:28:13.650Z,0.00
2023-04-01T00:29:13.660Z,0.00
2023-04-01T00:30:13.730Z,0.00
2023-04-01T00:31:13.715Z,0.00
2023-04-01T00:32:13.701Z,0.00
2023-04-01T00:33:13.719Z,0.00
2023-04-01T00:34:13.736Z,0.00
2023-04-01T00:35:13.749Z,0.00
2023-04-01T00:36:13.778Z,0.00
2023-04-01T00:37:13.787Z,0.00
2023-04-01T00:38:13.786Z,0.00
2023-04-01T00:39:13.802Z,0.00
2023-04-01T00:40:13.817Z,0.00
2023-04-01T00:41:13.832Z,0.00
2023-04-01T00:42:13.843Z,0.00
2023-04-01T00:43:13.891Z,0.00
2023-04-01T00:44:13.871Z,0.00
2023-04-01T00:45:13.886Z,0.00
2023-04-01T00:46:13.957Z,0.00
2023-04-01T00:47:13.934Z,0.00
2023-04-01T00:48:14.001Z,0.00
2023-04-01T00:49:13.941Z,0.00
2023-04-01T00:50:13.955Z,0.00
2023-04-01T00:51:13.967Z,0.00
2023-04-01T00:52:13.979Z,0.00
2023-04-01T00:53:13.998Z,0.00
2023-04-01T00:54:14.009Z,0.00
2023-04-01T00:55:14.028Z,0.00
2023-04-01T00:56:14.037Z,0.00
2023-04-01T00:57:14.100Z,0.00
2023-04-01T00:58:14.066Z,0.00
2023-04-01T00:59:14.084Z,0.00
2023-04-01T01:00:14.103Z,0.00
2023-04-01T01:01:14.127Z,0.00
2023-04-01T01:02:14.146Z,0.00
2023-04-01T01:03:14.140Z,0.00
2023-04-01T01:04:14.148Z,0.00
2023-04-01T01:05:14.158Z,0.00
2023-04-01T01:06:14.173Z,0.00
2023-04-01T01:07:14.186Z,0.00
2023-04-01T01:08:14.204Z,0.00
2023-04-01T01:09:14.215Z,0.00
2023-04-01T01:10:14.230Z,0.00
2023-04-01T01:11:14.272Z,0.00
2023-04-01T01:12:14.263Z,0.00
2023-04-01T01:13:14.271Z,0.00
2023-04-01T01:14:14.285Z,0.00
2023-04-01T01:15:14.304Z,0.00
2023-04-01T01:16:14.344Z,0.00
2023-04-01T01:17:14.325Z,0.00
2023-04-01T01:18:14.336Z,0.00
2023-04-01T01:19:14.365Z,0.00
2023-04-01T01:20:23.069Z,0.00
2023-04-01T01:21:14.379Z,0.00
2023-04-01T01:22:14.403Z,0.00
2023-04-01T01:23:14.405Z,0.00
2023-04-01T01:24:14.427Z,0.00
2023-04-01T01:25:14.440Z,0.00
2023-04-01T01:26:14.458Z,0.00
2023-04-01T01:27:14.469Z,0.00
2023-04-01T01:28:14.482Z,0.00
2023-04-01T01:29:14.490Z,0.00
2023-04-01T01:30:14.517Z,0.00
2023-04-01T01:31:14.574Z,0.00
2023-04-01T01:32:14.543Z,0.00
2023-04-01T01:33:14.615Z,0.00
2023-04-01T01:34:14.565Z,0.00
2023-04-01T01:35:14.570Z,0.00
2023-04-01T01:36:14.664Z,0.00
2023-04-01T01:37:14.600Z,0.00
2023-04-01T01:38:14.611Z,0.00
2023-04-01T01:39:14.653Z,0.00
2023-04-01T01:40:14.639Z,0.00
2023-04-01T01:41:14.654Z,0.00
2023-04-01T01:42:14.666Z,0.00
2023-04-01T01:43:14.697Z,0.00
2023-04-01T01:44:14.696Z,0.00
2023-04-01T01:45:14.713Z,0.00
2023-04-01T01:46:14.773Z,0.00
2023-04-01T01:47:14.735Z,0.00
2023-04-01T01:48:14.748Z,0.00
2023-04-01T01:49:14.765Z,0.00
2023-04-01T01:50:14.777Z,0.00
2023-04-01T01:51:14.796Z,0.00
2023-04-01T01:52:14.810Z,0.00
2023-04-01T01:53:14.834Z,0.00
2023-04-01T01:54:14.848Z,0.00
2023-04-01T01:55:14.843Z,0.00
2023-04-01T01:56:14.862Z,0.00
2023-04-01T01:57:14.926Z,0.00
2023-04-01T01:58:14.884Z,0.00
2023-04-01T01:59:14.896Z,0.00
2023-04-01T02:00:14.908Z,0.00
2023-04-01T02:01:14.953Z,0.00
2023-04-01T02:02:14.949Z,0.00
2023-04-01T02:03:14.952Z,0.00
2023-04-01T02:04:14.986Z,0.00
2023-04-01T02:05:14.991Z,0.00
2023-04-01T02:06:14.994Z,0.00
2023-04-01T02:07:15.007Z,0.00
2023-04-01T02:08:15.042Z,0.00
2023-04-01T02:09:15.032Z,0.00
2023-04-01T02:10:15.054Z,0.00
2023-04-01T02:11:15.074Z,0.00
2023-04-01T02:12:15.078Z,0.00
2023-04-01T02:13:15.090Z,0.00
2023-04-01T02:14:15.100Z,0.00
2023-04-01T02:15:15.117Z,0.00
2023-04-01T02:16:15.187Z,0.00
2023-04-01T02:17:15.142Z,0.00
2023-04-01T02:18:15.156Z,0.00
2023-04-01T02:19:15.169Z,0.00
2023-04-01T02:20:15.185Z,0.00
2023-04-01T02:21:15.197Z,0.00
2023-04-01T02:22:15.209Z,0.00
2023-04-01T02:23:15.240Z,0.00
2023-04-01T02:24:15.256Z,0.00
2023-04-01T02:25:15.370Z,0.00
2023-04-01T02:26:15.263Z,0.00
2023-04-01T02:27:15.374Z,0.00
2023-04-01T02:28:15.391Z,0.00
2023-04-01T02:29:15.400Z,0.00
2023-04-01T02:30:15.376Z,0.00
2023-04-01T02:31:15.410Z,0.00
2023-04-01T02:32:15.343Z,0.00
2023-04-01T02:33:15.377Z,0.00
2023-04-01T02:34:15.395Z,0.00
2023-04-01T02:35:15.444Z,0.00
2023-04-01T02:36:15.493Z,0.00
2023-04-01T02:37:15.420Z,0.00
2023-04-01T02:38:15.423Z,0.00
2023-04-01T02:39:15.443Z,0.00
2023-04-01T02:40:15.462Z,0.00
2023-04-01T02:41:15.464Z,0.00
2023-04-01T02:42:15.498Z,0.00
2023-04-01T02:43:15.499Z,0.00
2023-04-01T02:44:15.546Z,0.00
2023-04-01T02:45:15.534Z,0.00
2023-04-01T02:46:15.549Z,0.00
2023-04-01T02:47:15.548Z,0.00
2023-04-01T02:48:15.607Z,0.00
2023-04-01T02:49:15.580Z,0.00
2023-04-01T02:50:15.712Z,0.00
2023-04-01T02:51:16.719Z,0.00
2023-04-01T02:52:15.629Z,0.00
2023-04-01T02:53:15.636Z,0.00
2023-04-01T02:54:15.644Z,0.00
2023-04-01T02:55:15.658Z,0.00
2023-04-01T02:56:15.679Z,0.00
2023-04-01T02:57:15.754Z,0.00
2023-04-01T02:58:15.700Z,0.00
2023-04-01T02:59:15.718Z,0.00
2023-04-01T03:00:15.733Z,0.00
2023-04-01T03:01:15.841Z,0.00
2023-04-01T03:02:15.860Z,0.00
2023-04-01T03:03:15.783Z,0.00
2023-04-01T03:04:15.784Z,0.00
2023-04-01T03:05:15.796Z,0.00
2023-04-01T03:06:15.809Z,0.00
2023-04-01T03:07:15.827Z,0.00
2023-04-01T03:08:15.840Z,0.00
2023-04-01T03:09:15.854Z,0.00
2023-04-01T03:10:15.863Z,0.00
2023-04-01T03:11:15.888Z,0.00
2023-04-01T03:12:15.893Z,0.00
2023-04-01T03:13:15.912Z,0.00
2023-04-01T03:14:15.927Z,0.00
2023-04-01T03:15:15.936Z,0.00
2023-04-01T03:16:15.976Z,0.00
2023-04-01T03:17:15.962Z,0.00
2023-04-01T03:18:15.974Z,0.00
2023-04-01T03:19:15.988Z,0.00
2023-04-01T03:20:16.015Z,0.00
2023-04-01T03:21:16.014Z,0.00
2023-04-01T03:22:16.026Z,0.00
2023-04-01T03:23:16.043Z,0.00
2023-04-01T03:24:16.054Z,0.00
2023-04-01T03:25:16.067Z,0.00
2023-04-01T03:26:16.086Z,0.00
2023-04-01T03:27:16.096Z,0.00
2023-04-01T03:28:16.123Z,0.00
2023-04-01T03:29:16.121Z,0.00
2023-04-01T03:30:16.214Z,0.00
2023-04-01T03:31:16.199Z,0.00
2023-04-01T03:32:16.167Z,0.00
2023-04-01T03:33:16.176Z,0.00
2023-04-01T03:34:16.193Z,0.00
2023-04-01T03:35:16.208Z,0.00
2023-04-01T03:36:16.296Z,0.00
2023-04-01T03:37:16.232Z,0.00
2023-04-01T03:38:16.244Z,0.00
2023-04-01T03:39:16.259Z,0.00
2023-04-01T03:40:16.277Z,0.00
2023-04-01T03:41:16.289Z,0.00
2023-04-01T03:42:16.300Z,0.00
2023-04-01T03:43:16.326Z,0.00
2023-04-01T03:44:16.331Z,0.00
2023-04-01T03:45:16.349Z,0.00
2023-04-01T03:46:16.441Z,0.00
2023-04-01T03:47:16.377Z,0.00
2023-04-01T03:48:16.406Z,0.00
2023-04-01T03:49:16.403Z,0.00
2023-04-01T03:50:16.431Z,0.00
2023-04-01T03:51:16.456Z,0.00
2023-04-01T03:52:16.458Z,0.00
2023-04-01T03:53:16.460Z,0.00
2023-04-01T03:54:16.478Z,0.00
2023-04-01T03:55:16.526Z,0.00
2023-04-01T03:56:16.497Z,0.00
2023-04-01T03:57:16.562Z,0.00
2023-04-01T03:58:16.524Z,0.00
2023-04-01T03:59:16.535Z,0.00
2023-04-01T04:00:16.550Z,0.00
2023-04-01T04:01:16.570Z,0.00
2023-04-01T04:02:16.610Z,0.00
2023-04-01T04:03:16.694Z,0.00
2023-04-01T04:04:16.657Z,0.00
2023-04-01T04:05:16.643Z,0.00
2023-04-01T04:06:16.648Z,0.00
2023-04-01T04:07:16.661Z,0.00
2023-04-01T04:08:16.664Z,0.00
2023-04-01T04:09:16.678Z,0.00
2023-04-01T04:10:16.702Z,0.00
2023-04-01T04:11:16.706Z,0.00
2023-04-01T04:12:16.732Z,0.00
2023-04-01T04:13:16.734Z,0.00
2023-04-01T04:14:16.747Z,0.00
2023-04-01T04:15:16.780Z,0.00
2023-04-01T04:16:16.815Z,0.00
2023-04-01T04:17:16.795Z,4.00
2023-04-01T04:18:16.803Z,0.00
2023-04-01T04:19:16.953Z,4.00
2023-04-01T04:20:16.832Z,8.00
2023-04-01T04:21:16.853Z,8.00
2023-04-01T04:22:16.863Z,8.00
2023-04-01T04:23:16.897Z,8.00
2023-04-01T04:24:16.897Z,12.00
2023-04-01T04:25:16.903Z,16.00
2023-04-01T04:26:16.918Z,16.00
2023-04-01T04:27:16.932Z,24.00
2023-04-01T04:28:16.946Z,24.00
2023-04-01T04:29:16.978Z,28.00
2023-04-01T04:30:16.980Z,32.00
2023-04-01T04:31:17.018Z,36.00
2023-04-01T04:32:17.001Z,40.00
2023-04-01T04:33:17.012Z,52.00
2023-04-01T04:34:17.026Z,56.00
2023-04-01T04:35:17.042Z,64.00
2023-04-01T04:36:17.143Z,76.00
2023-04-01T04:37:17.071Z,88.00
2023-04-01T04:38:17.080Z,100.00
2023-04-01T04:39:17.098Z,108.00
2023-04-01T04:40:17.122Z,120.00
2023-04-01T04:41:17.131Z,128.00
2023-04-01T04:42:17.142Z,140.00
2023-04-01T04:43:17.158Z,152.00
2023-04-01T04:44:17.169Z,160.00
2023-04-01T04:45:17.198Z,176.00
2023-04-01T04:46:17.213Z,188.00
2023-04-01T04:47:17.273Z,200.00
2023-04-01T04:48:17.222Z,216.00
2023-04-01T04:49:17.236Z,232.00
2023-04-01T04:50:17.267Z,244.00
2023-04-01T04:51:17.276Z,256.00
2023-04-01T04:52:17.276Z,268.00
2023-04-01T04:53:17.295Z,280.00
2023-04-01T04:54:17.306Z,288.00
2023-04-01T04:55:17.321Z,304.00
2023-04-01T04:56:17.331Z,320.00
2023-04-01T04:57:17.367Z,340.00
2023-04-01T04:58:17.359Z,364.00
2023-04-01T04:59:17.376Z,396.00
2023-04-01T05:00:17.391Z,416.00
2023-04-01T05:01:17.432Z,432.00
2023-04-01T05:02:17.471Z,444.00
2023-04-01T05:03:17.562Z,468.00
2023-04-01T05:04:17.450Z,472.00
2023-04-01T05:05:17.455Z,472.00
2023-04-01T05:06:17.467Z,480.00
2023-04-01T05:07:17.486Z,496.00
2023-04-01T05:08:17.503Z,512.00
2023-04-01T05:09:17.541Z,560.00
2023-04-01T05:10:17.524Z,624.00
2023-04-01T05:11:17.542Z,708.00
2023-04-01T05:12:17.556Z,788.00
2023-04-01T05:13:17.566Z,844.00
2023-04-01T05:14:17.584Z,920.00
2023-04-01T05:15:17.594Z,996.00
2023-04-01T05:16:17.677Z,1048.00
2023-04-01T05:17:17.620Z,1088.00
2023-04-01T05:18:17.641Z,1128.00
2023-04-01T05:19:17.665Z,1144.00
2023-04-01T05:20:17.667Z,1152.00
2023-04-01T05:21:17.675Z,1152.00
2023-04-01T05:22:17.690Z,1148.00
2023-04-01T05:23:17.709Z,1152.00
2023-04-01T05:24:17.716Z,1148.00
2023-04-01T05:25:17.733Z,1148.00
2023-04-01T05:26:17.757Z,1160.00
2023-04-01T05:27:17.767Z,1160.00
2023-04-01T05:28:17.774Z,1168.00
2023-04-01T05:29:17.786Z,1180.00
2023-04-01T05:30:17.801Z,1212.00
2023-04-01T05:31:17.877Z,1256.00
2023-04-01T05:32:17.829Z,1288.00
2023-04-01T05:33:17.843Z,1316.00
2023-04-01T05:34:17.858Z,1372.00
2023-04-01T05:35:17.873Z,1400.00
2023-04-01T05:36:17.973Z,1416.00
2023-04-01T05:37:17.898Z,1432.00
2023-04-01T05:38:17.915Z,1480.00
2023-04-01T05:39:17.933Z,1528.00
2023-04-01T05:40:17.954Z,1592.00
2023-04-01T05:41:17.965Z,1652.00
2023-04-01T05:42:17.979Z,1724.00
2023-04-01T05:43:17.985Z,1784.00
2023-04-01T05:44:18.003Z,1796.00
2023-04-01T05:45:18.019Z,1728.00
2023-04-01T05:46:18.076Z,1660.00
2023-04-01T05:47:18.040Z,1632.00
2023-04-01T05:48:18.056Z,1588.00
2023-04-01T05:49:18.070Z,1508.00
2023-04-01T05:50:18.083Z,1488.00
2023-04-01T05:51:18.098Z,1512.00
2023-04-01T05:52:18.113Z,1532.00
2023-04-01T05:53:18.130Z,1580.00
2023-04-01T05:54:18.142Z,1668.00
2023-04-01T05:55:18.158Z,1792.00
2023-04-01T05:56:18.169Z,2024.00
2023-04-01T05:57:18.280Z,2268.00
2023-04-01T05:58:18.209Z,2420.00
2023-04-01T05:59:18.208Z,2640.00
2023-04-01T06:00:18.233Z,2964.00
2023-04-01T06:01:18.235Z,3120.00
2023-04-01T06:02:18.264Z,3220.00
2023-04-01T06:03:18.356Z,3316.00
2023-04-01T06:04:18.321Z,3448.00
2023-04-01T06:05:18.297Z,3516.00
2023-04-01T06:06:18.311Z,3508.00
2023-04-01T06:07:18.340Z,3544.00
2023-04-01T06:08:20.227Z,3476.00
2023-04-01T06:09:18.356Z,3444.00
2023-04-01T06:10:18.366Z,3348.00
2023-04-01T06:11:18.380Z,3308.00
2023-04-01T06:12:18.399Z,3284.00
2023-04-01T06:13:18.410Z,3424.00
2023-04-01T06:14:18.423Z,3600.00
2023-04-01T06:15:18.438Z,3604.00
2023-04-01T06:16:18.504Z,3752.00
2023-04-01T06:17:18.482Z,3768.00
2023-04-01T06:18:18.479Z,3800.00
2023-04-01T06:19:18.494Z,3800.00
2023-04-01T06:20:18.513Z,3728.00
2023-04-01T06:21:18.533Z,3640.00
2023-04-01T06:22:18.581Z,3740.00
2023-04-01T06:23:18.549Z,3808.00
2023-04-01T06:24:18.569Z,3860.00
2023-04-01T06:25:18.602Z,4116.00
2023-04-01T06:26:18.609Z,4396.00
2023-04-01T06:27:18.614Z,4664.00
2023-04-01T06:28:18.754Z,4816.00
2023-04-01T06:29:18.639Z,4936.00
2023-04-01T06:30:18.672Z,5032.00
2023-04-01T06:31:18.763Z,5076.00
2023-04-01T06:32:18.779Z,5036.00
2023-04-01T06:33:18.700Z,4972.00
2023-04-01T06:34:18.721Z,5296.00
2023-04-01T06:35:18.735Z,5764.00
2023-04-01T06:36:18.788Z,5792.00
2023-04-01T06:37:18.761Z,5984.00
2023-04-01T06:38:18.787Z,6136.00
2023-04-01T06:39:18.795Z,6424.00
2023-04-01T06:40:18.809Z,6732.00
2023-04-01T06:41:18.827Z,7256.00
2023-04-01T06:42:18.838Z,7464.00
2023-04-01T06:43:19.169Z,7328.00
2023-04-01T06:44:18.871Z,7108.00
2023-04-01T06:45:18.883Z,7332.00
2023-04-01T06:46:18.950Z,7432.00
2023-04-01T06:47:18.916Z,7828.00
2023-04-01T06:48:18.931Z,8824.00
2023-04-01T06:49:18.944Z,9376.00
2023-04-01T06:50:18.960Z,9656.00
2023-04-01T06:51:18.988Z,9584.00
2023-04-01T06:52:18.996Z,9264.00
2023-04-01T06:53:19.017Z,8820.00
2023-04-01T06:54:19.021Z,9244.00
2023-04-01T06:55:20.285Z,9848.00
2023-04-01T06:56:19.061Z,10376.00
2023-04-01T06:57:19.261Z,10744.00
2023-04-01T06:58:19.095Z,11040.00
2023-04-01T06:59:19.128Z,11556.00
2023-04-01T07:00:19.120Z,12196.00
2023-04-01T07:01:19.197Z,12628.00
2023-04-01T07:02:19.166Z,12852.00
2023-04-01T07:03:19.487Z,12700.00
2023-04-01T07:04:19.231Z,12160.00
2023-04-01T07:05:19.203Z,11592.00
2023-04-01T07:06:19.221Z,11832.00
2023-04-01T07:07:19.227Z,12248.00
2023-04-01T07:08:19.247Z,12332.00
2023-04-01T07:09:19.280Z,12816.00
2023-04-01T07:10:19.281Z,13156.00
2023-04-01T07:11:19.333Z,13316.00
2023-04-01T07:12:19.314Z,13424.00
2023-04-01T07:13:19.340Z,13404.00
2023-04-01T07:14:19.342Z,13320.00
2023-04-01T07:15:19.360Z,13220.00
2023-04-01T07:16:19.417Z,13504.00
2023-04-01T07:17:19.553Z,14192.00
2023-04-01T07:18:19.414Z,14832.00
2023-04-01T07:19:19.426Z,14976.00
2023-04-01T07:20:19.444Z,15096.00
2023-04-01T07:21:19.464Z,15536.00
2023-04-01T07:22:19.481Z,15856.00
2023-04-01T07:23:19.494Z,15856.00
2023-04-01T07:24:19.513Z,15144.00
2023-04-01T07:25:19.545Z,13688.00
2023-04-01T07:26:19.555Z,12780.00
2023-04-01T07:27:19.563Z,12916.00
2023-04-01T07:28:19.590Z,13692.00
2023-04-01T07:29:19.616Z,14728.00
2023-04-01T07:30:19.615Z,15524.00
2023-04-01T07:31:19.674Z,15780.00
2023-04-01T07:32:19.660Z,15920.00
2023-04-01T07:33:19.674Z,16424.00
2023-04-01T07:34:19.691Z,16456.00
2023-04-01T07:35:19.708Z,16076.00
2023-04-01T07:36:19.800Z,15576.00
2023-04-01T07:37:19.747Z,15644.00
2023-04-01T07:38:19.802Z,16016.00
2023-04-01T07:39:19.781Z,16520.00
2023-04-01T07:40:19.798Z,16560.00
2023-04-01T07:41:19.817Z,16456.00
2023-04-01T07:42:19.834Z,16276.00
2023-04-01T07:43:19.853Z,15968.00
2023-04-01T07:44:19.873Z,15428.00
2023-04-01T07:45:19.893Z,15192.00
2023-04-01T07:46:19.936Z,15312.00
2023-04-01T07:47:19.929Z,15512.00
2023-04-01T07:48:19.946Z,15736.00
2023-04-01T07:49:19.965Z,16184.00
2023-04-01T07:50:19.983Z,16796.00
2023-04-01T07:51:19.998Z,17568.00
2023-04-01T07:52:20.025Z,17920.00
2023-04-01T07:53:20.037Z,17760.00
2023-04-01T07:54:20.054Z,17440.00
2023-04-01T07:55:20.075Z,16852.00
2023-04-01T07:56:20.097Z,15940.00
2023-04-01T07:57:20.152Z,15216.00
2023-04-01T07:58:20.130Z,14804.00
2023-04-01T07:59:20.150Z,14732.00
2023-04-01T08:00:20.168Z,14764.00
2023-04-01T08:01:20.191Z,14700.00
2023-04-01T08:02:20.303Z,14484.00
2023-04-01T08:03:20.298Z,14096.00
2023-04-01T08:04:20.518Z,13536.00
2023-04-01T08:05:20.278Z,12808.00
2023-04-01T08:06:20.279Z,12068.00
2023-04-01T08:07:20.307Z,11184.00
2023-04-01T08:08:20.319Z,10156.00
2023-04-01T08:09:20.336Z,9128.00
2023-04-01T08:10:20.352Z,8256.00
2023-04-01T08:11:20.373Z,7844.00
2023-04-01T08:12:20.416Z,7900.00
2023-04-01T08:13:20.413Z,8192.00
2023-04-01T08:14:20.426Z,8452.00
2023-04-01T08:15:20.443Z,8484.00
2023-04-01T08:16:20.505Z,8440.00
2023-04-01T08:17:20.482Z,8692.00
2023-04-01T08:18:20.505Z,9044.00
2023-04-01T08:19:20.520Z,9376.00
2023-04-01T08:20:20.555Z,9760.00
2023-04-01T08:21:20.558Z,10164.00
2023-04-01T08:22:20.572Z,10636.00
2023-04-01T08:23:20.608Z,11012.00
2023-04-01T08:24:22.242Z,11468.00
2023-04-01T08:25:20.625Z,11808.00
2023-04-01T08:26:20.657Z,12080.00
2023-04-01T08:27:20.665Z,12380.00
2023-04-01T08:28:20.683Z,12604.00
2023-04-01T08:29:20.703Z,12736.00
2023-04-01T08:30:20.727Z,13000.00
2023-04-01T08:31:20.745Z,13356.00
2023-04-01T08:32:20.752Z,13552.00
2023-04-01T08:33:20.780Z,13676.00
2023-04-01T08:34:20.789Z,13780.00
2023-04-01T08:35:20.804Z,13844.00
2023-04-01T08:36:20.905Z,14052.00
2023-04-01T08:37:20.849Z,14220.00
2023-04-01T08:38:20.858Z,14760.00
2023-04-01T08:39:20.874Z,15068.00
2023-04-01T08:40:20.892Z,15264.00
2023-04-01T08:41:20.930Z,15632.00
2023-04-01T08:42:20.941Z,15696.00
2023-04-01T08:43:20.984Z,15668.00
2023-04-01T08:44:20.987Z,15704.00
2023-04-01T08:45:20.994Z,15760.00
2023-04-01T08:46:21.108Z,16076.00
2023-04-01T08:47:21.019Z,16524.00
2023-04-01T08:48:21.038Z,16424.00
2023-04-01T08:49:21.055Z,16236.00
2023-04-01T08:50:21.085Z,15768.00
2023-04-01T08:51:21.090Z,15372.00
2023-04-01T08:52:21.110Z,15772.00
2023-04-01T08:53:21.135Z,16616.00
2023-04-01T08:54:21.148Z,17696.00
2023-04-01T08:55:21.171Z,18656.00
2023-04-01T08:56:21.185Z,19616.00
2023-04-01T08:57:21.230Z,20480.00
2023-04-01T08:58:21.222Z,21248.00
2023-04-01T08:59:21.241Z,21856.00
2023-04-01T09:00:21.293Z,22080.00
2023-04-01T09:01:21.273Z,21824.00
2023-04-01T09:02:21.402Z,20960.00
2023-04-01T09:03:21.394Z,20064.00
2023-04-01T09:04:21.378Z,19552.00
2023-04-01T09:05:21.344Z,18336.00
2023-04-01T09:06:21.368Z,15396.00
2023-04-01T09:07:21.387Z,12028.00
2023-04-01T09:08:21.400Z,9784.00
2023-04-01T09:09:21.446Z,8300.00
2023-04-01T09:10:21.502Z,7008.00
2023-04-01T09:11:21.457Z,5812.00
2023-04-01T09:12:21.475Z,5356.00
2023-04-01T09:13:21.496Z,5460.00
2023-04-01T09:14:21.513Z,5408.00
2023-04-01T09:15:21.530Z,5312.00
2023-04-01T09:16:21.583Z,5224.00
2023-04-01T09:17:21.648Z,5192.00
2023-04-01T09:18:21.586Z,5188.00
2023-04-01T09:19:21.624Z,5452.00
2023-04-01T09:20:21.632Z,5752.00
2023-04-01T09:21:21.641Z,5864.00
2023-04-01T09:22:21.658Z,5612.00
2023-04-01T09:23:21.674Z,5020.00
2023-04-01T09:24:21.697Z,4828.00
2023-04-01T09:25:21.713Z,4756.00
2023-04-01T09:26:21.728Z,5172.00
2023-04-01T09:27:21.753Z,5716.00
2023-04-01T09:28:21.776Z,5684.00
2023-04-01T09:29:21.781Z,5592.00
2023-04-01T09:30:21.800Z,5360.00
2023-04-01T09:31:21.846Z,5480.00
2023-04-01T09:32:21.856Z,6148.00
2023-04-01T09:33:21.848Z,6468.00
2023-04-01T09:34:21.866Z,6232.00
2023-04-01T09:35:21.884Z,6304.00
2023-04-01T09:36:21.916Z,6424.00
2023-04-01T09:37:21.916Z,6016.00
2023-04-01T09:38:21.933Z,5352.00
2023-04-01T09:39:21.947Z,5120.00
2023-04-01T09:40:21.984Z,4880.00
2023-04-01T09:41:21.984Z,4532.00
2023-04-01T09:42:22.004Z,4144.00
2023-04-01T09:43:22.014Z,4156.00
2023-04-01T09:44:22.030Z,4480.00
2023-04-01T09:45:22.044Z,5232.00
2023-04-01T09:46:22.072Z,5608.00
2023-04-01T09:47:22.075Z,5476.00
2023-04-01T09:48:22.100Z,5468.00
2023-04-01T09:49:22.119Z,5760.00
2023-04-01T09:50:22.129Z,6260.00
2023-04-01T09:51:22.176Z,6224.00
2023-04-01T09:52:22.154Z,7088.00
2023-04-01T09:53:22.174Z,6912.00
2023-04-01T09:54:22.188Z,8240.00
2023-04-01T09:55:22.220Z,9312.00
2023-04-01T09:56:22.214Z,9776.00
2023-04-01T09:57:22.262Z,10228.00
2023-04-01T09:58:22.243Z,11204.00
2023-04-01T09:59:22.258Z,11140.00
2023-04-01T10:00:22.285Z,12168.00
2023-04-01T10:01:22.344Z,13448.00
2023-04-01T10:02:22.345Z,13928.00
2023-04-01T10:03:22.318Z,11856.00
2023-04-01T10:04:22.337Z,12396.00
2023-04-01T10:05:22.415Z,13592.00
2023-04-01T10:06:22.362Z,13676.00
2023-04-01T10:07:22.380Z,13724.00
2023-04-01T10:08:22.393Z,14028.00
2023-04-01T10:09:22.412Z,14172.00
2023-04-01T10:10:22.429Z,13368.00
2023-04-01T10:11:22.449Z,13352.00
2023-04-01T10:12:22.453Z,13544.00
2023-04-01T10:13:22.468Z,13616.00
2023-04-01T10:14:22.484Z,13504.00
2023-04-01T10:15:22.496Z,13148.00
2023-04-01T10:16:22.576Z,13064.00
2023-04-01T10:17:22.704Z,12760.00
2023-04-01T10:18:22.544Z,10508.00
2023-04-01T10:19:22.557Z,9948.00
2023-04-01T10:20:22.579Z,9568.00
2023-04-01T10:21:22.624Z,9952.00
2023-04-01T10:22:22.602Z,9772.00
2023-04-01T10:23:22.618Z,8856.00
2023-04-01T10:24:22.634Z,8900.00
2023-04-01T10:25:22.647Z,9224.00
2023-04-01T10:26:22.665Z,8592.00
2023-04-01T10:27:22.692Z,9048.00
2023-04-01T10:28:22.706Z,9108.00
2023-04-01T10:29:22.746Z,8736.00
2023-04-01T10:30:22.725Z,8596.00
2023-04-01T10:31:22.799Z,9120.00
2023-04-01T10:32:22.757Z,9532.00
2023-04-01T10:33:22.774Z,8948.00
2023-04-01T10:34:22.783Z,8668.00
2023-04-01T10:35:22.829Z,9408.00
2023-04-01T10:36:22.880Z,10444.00
2023-04-01T10:37:22.832Z,10152.00
2023-04-01T10:38:22.850Z,9876.00
2023-04-01T10:39:22.861Z,10944.00
2023-04-01T10:40:22.879Z,11304.00
2023-04-01T10:41:22.893Z,11248.00
2023-04-01T10:42:22.903Z,12032.00
2023-04-01T10:43:22.915Z,10884.00
2023-04-01T10:44:22.932Z,10228.00
2023-04-01T10:45:22.948Z,10432.00
2023-04-01T10:46:23.103Z,9692.00
2023-04-01T10:47:23.007Z,9604.00
2023-04-01T10:48:22.991Z,10856.00
2023-04-01T10:49:23.004Z,11372.00
2023-04-01T10:50:23.023Z,10900.00
2023-04-01T10:51:23.035Z,10244.00
2023-04-01T10:52:23.057Z,11660.00
2023-04-01T10:53:23.066Z,13608.00
2023-04-01T10:54:23.080Z,13168.00
2023-04-01T10:55:23.093Z,13620.00
2023-04-01T10:56:23.117Z,14072.00
2023-04-01T10:57:23.172Z,13268.00
2023-04-01T10:58:23.141Z,15288.00
2023-04-01T10:59:23.167Z,16892.00
2023-04-01T11:00:23.174Z,17008.00
2023-04-01T11:01:23.203Z,15720.00
2023-04-01T11:02:23.238Z,14732.00
2023-04-01T11:03:23.369Z,15620.00
2023-04-01T11:04:23.229Z,17388.00
2023-04-01T11:05:23.250Z,18048.00
2023-04-01T11:06:23.261Z,20128.00
2023-04-01T11:07:23.274Z,19488.00
2023-04-01T11:08:23.292Z,20608.00
2023-04-01T11:09:23.307Z,20768.00
2023-04-01T11:10:23.321Z,20992.00
2023-04-01T11:11:23.335Z,20544.00
2023-04-01T11:12:23.352Z,20832.00
2023-04-01T11:13:23.367Z,20416.00
2023-04-01T11:14:23.380Z,20384.00
2023-04-01T11:15:23.399Z,21088.00
2023-04-01T11:16:23.496Z,21504.00
2023-04-01T11:17:23.527Z,20160.00
2023-04-01T11:18:23.453Z,19648.00
2023-04-01T11:19:23.460Z,17176.00
2023-04-01T11:20:23.479Z,13724.00
2023-04-01T11:21:24.836Z,13284.00
2023-04-01T11:22:23.510Z,11072.00
2023-04-01T11:23:23.537Z,9704.00
2023-04-01T11:24:23.556Z,11116.00
2023-04-01T11:25:23.554Z,13716.00
2023-04-01T11:26:23.566Z,13776.00
2023-04-01T11:27:23.631Z,13228.00
2023-04-01T11:28:23.625Z,13488.00
2023-04-01T11:29:23.627Z,13308.00
2023-04-01T11:30:23.629Z,11608.00
2023-04-01T11:31:23.685Z,12184.00
2023-04-01T11:32:23.710Z,12264.00
2023-04-01T11:33:23.676Z,11260.00
2023-04-01T11:34:23.689Z,11384.00
2023-04-01T11:35:23.708Z,10656.00
2023-04-01T11:36:23.783Z,9556.00
2023-04-01T11:37:23.758Z,8748.00
2023-04-01T11:38:23.900Z,9204.00
2023-04-01T11:39:23.766Z,10188.00
2023-04-01T11:40:23.781Z,10432.00
2023-04-01T11:41:23.796Z,9768.00
2023-04-01T11:42:23.816Z,10916.00
2023-04-01T11:43:33.148Z,10188.00
2023-04-01T11:44:23.850Z,9396.00
2023-04-01T11:45:23.861Z,9552.00
2023-04-01T11:46:23.889Z,9488.00
2023-04-01T11:47:23.899Z,10044.00
2023-04-01T11:48:23.920Z,10308.00
2023-04-01T11:49:23.921Z,9244.00
2023-04-01T11:50:23.938Z,7976.00
2023-04-01T11:51:23.945Z,7564.00
2023-04-01T11:52:23.964Z,8512.00
2023-04-01T11:53:24.001Z,8388.00
2023-04-01T11:54:23.995Z,8768.00
2023-04-01T11:55:24.006Z,9244.00
2023-04-01T11:56:24.025Z,9460.00
2023-04-01T11:57:24.111Z,7996.00
2023-04-01T11:58:24.160Z,7860.00
2023-04-01T11:59:24.069Z,8376.00
2023-04-01T12:00:24.094Z,9388.00
2023-04-01T12:01:24.099Z,11508.00
2023-04-01T12:02:24.195Z,11264.00
2023-04-01T12:03:24.227Z,10716.00
2023-04-01T12:04:24.209Z,10684.00
2023-04-01T12:05:24.163Z,12064.00
2023-04-01T12:06:24.182Z,12996.00
2023-04-01T12:07:24.192Z,13112.00
2023-04-01T12:08:24.203Z,13396.00
2023-04-01T12:09:24.221Z,12580.00
2023-04-01T12:10:24.244Z,12384.00
2023-04-01T12:11:24.248Z,11632.00
2023-04-01T12:12:24.279Z,10732.00
2023-04-01T12:13:24.289Z,11396.00
2023-04-01T12:14:24.296Z,11228.00
2023-04-01T12:15:24.307Z,10212.00
2023-04-01T12:16:24.356Z,11040.00
2023-04-01T12:17:24.354Z,12544.00
2023-04-01T12:18:24.353Z,11312.00
2023-04-01T12:19:24.369Z,10736.00
2023-04-01T12:20:24.378Z,10520.00
2023-04-01T12:21:24.399Z,10536.00
2023-04-01T12:22:24.410Z,11068.00
2023-04-01T12:23:24.429Z,11008.00
2023-04-01T12:24:24.444Z,11080.00